createdAt,value
2018-08-28T00:01:25.857Z,86.39
2018-08-28T00:03:57.065Z,87.09
2018-08-28T00:06:28.039Z,86.58
2018-08-28T00:09:00.323Z,86.79
2018-08-28T00:11:32.575Z,87.56
2018-08-28T00:14:03.405Z,87.67
2018-08-28T00:16:37.317Z,88.01
2018-08-28T00:19:08.617Z,87.92
2018-08-28T00:21:48.597Z,87.92
2018-08-28T00:27:24.982Z,87.18
2018-08-28T00:32:44.905Z,87.74
2018-08-28T00:35:15.432Z,87.23
2018-08-28T00:37:47.430Z,87.42
2018-08-28T00:40:18.014Z,87.27
2018-08-28T00:42:48.750Z,86.89
2018-08-28T00:45:18.890Z,87.80
2018-08-28T00:47:49.149Z,87.22
2018-08-28T00:50:19.815Z,86.32
2018-08-28T00:52:56.615Z,87.02
2018-08-28T00:55:32.382Z,87.00
2018-08-28T01:00:50.757Z,88.05
2018-08-28T01:03:21.033Z,87.83
2018-08-28T01:05:51.051Z,88.44
2018-08-28T01:08:21.191Z,89.29
2018-08-28T01:10:52.868Z,88.70
2018-08-28T01:13:22.958Z,89.08
2018-08-28T01:15:54.803Z,89.12
2018-08-28T01:18:25.091Z,89.45
2018-08-28T01:20:56.062Z,89.18
2018-08-28T01:23:26.309Z,89.25
2018-08-28T01:25:56.552Z,88.80
2018-08-28T01:28:26.646Z,88.23
2018-08-28T01:30:57.514Z,89.10
2018-08-28T01:33:29.581Z,89.28
2018-08-28T01:35:59.583Z,89.08
2018-08-28T01:38:30.523Z,89.02
2018-08-28T01:41:00.529Z,89.45
2018-08-28T01:43:32.431Z,89.21
2018-08-28T01:46:02.323Z,89.55
2018-08-28T01:48:34.176Z,89.51
2018-08-28T01:51:05.014Z,89.93
2018-08-28T01:53:36.403Z,88.67
2018-08-28T01:56:06.432Z,90.24
2018-08-28T01:58:36.441Z,90.04
2018-08-28T02:01:07.496Z,89.06
2018-08-28T02:03:37.611Z,89.03
2018-08-28T02:06:07.899Z,89.36
2018-08-28T02:08:38.876Z,88.97
2018-08-28T02:11:10.881Z,90.53
2018-08-28T02:13:41.822Z,89.86
2018-08-28T02:16:12.329Z,89.40
2018-08-28T02:18:42.344Z,89.46
2018-08-28T02:21:14.829Z,88.86
2018-08-28T02:23:45.764Z,89.73
2018-08-28T02:26:17.229Z,89.30
2018-08-28T02:28:47.400Z,89.76
2018-08-28T02:31:17.327Z,89.95
2018-08-28T02:33:48.546Z,89.08
2018-08-28T02:36:18.798Z,88.51
2018-08-28T02:38:49.753Z,88.97
2018-08-28T02:41:20.843Z,88.13
2018-08-28T02:43:51.758Z,88.58
2018-08-28T02:46:22.491Z,88.06
2018-08-28T02:48:53.634Z,87.77
2018-08-28T02:51:24.503Z,87.79
2018-08-28T02:53:55.956Z,87.13
2018-08-28T02:56:26.244Z,86.99
2018-08-28T02:58:56.220Z,87.11
2018-08-28T03:01:27.588Z,86.94
2018-08-28T03:03:58.663Z,87.41
2018-08-28T03:06:28.241Z,87.49
2018-08-28T03:08:58.873Z,87.28
2018-08-28T03:11:30.703Z,86.82
2018-08-28T03:14:01.280Z,86.51
2018-08-28T03:16:32.232Z,86.86
2018-08-28T03:19:04.589Z,87.69
2018-08-28T03:21:37.003Z,87.37
2018-08-28T03:24:08.643Z,87.78
2018-08-28T03:26:39.721Z,87.94
2018-08-28T03:29:10.110Z,88.15
2018-08-28T03:31:40.403Z,87.71
2018-08-28T03:34:10.830Z,88.32
2018-08-28T03:36:41.015Z,88.32
2018-08-28T03:39:11.271Z,88.22
2018-08-28T03:41:41.381Z,87.95
2018-08-28T03:44:11.381Z,87.73
2018-08-28T03:46:41.452Z,87.51
2018-08-28T03:49:11.785Z,87.90
2018-08-28T03:51:41.863Z,87.31
2018-08-28T03:54:13.621Z,87.13
2018-08-28T03:56:46.540Z,86.42
2018-08-28T03:59:16.646Z,87.02
2018-08-28T04:01:46.740Z,86.51
2018-08-28T04:04:17.890Z,86.67
2018-08-28T04:06:48.155Z,87.62
2018-08-28T04:09:19.261Z,87.69
2018-08-28T04:11:50.963Z,87.17
2018-08-28T04:14:39.559Z,86.44
2018-08-28T04:17:12.002Z,86.36
2018-08-28T04:19:42.163Z,86.25
2018-08-28T04:22:13.549Z,86.61
2018-08-28T04:24:43.771Z,86.38
2018-08-28T04:27:14.604Z,87.03
2018-08-28T04:29:44.798Z,87.67
2018-08-28T04:32:17.709Z,87.44
2018-08-28T04:34:47.992Z,87.32
2018-08-28T04:37:18.548Z,86.82
2018-08-28T04:39:49.504Z,87.03
2018-08-28T04:42:21.247Z,86.82
2018-08-28T04:44:52.179Z,86.31
2018-08-28T04:47:22.734Z,86.16
2018-08-28T04:49:53.750Z,85.94
2018-08-28T04:52:24.662Z,86.59
2018-08-28T04:54:56.998Z,87.26
2018-08-28T04:57:27.360Z,87.05
2018-08-28T04:59:59.275Z,86.89
2018-08-28T05:02:34.980Z,85.96
2018-08-28T05:05:10.194Z,86.86
2018-08-28T05:07:40.475Z,86.73
2018-08-28T05:10:10.657Z,85.72
2018-08-28T05:12:41.935Z,86.29
2018-08-28T05:15:12.333Z,86.17
2018-08-28T05:17:42.659Z,86.50
2018-08-28T05:20:13.112Z,85.97
2018-08-28T05:22:44.555Z,85.19
2018-08-28T05:25:15.203Z,85.85
2018-08-28T05:27:45.980Z,86.33
2018-08-28T05:30:19.613Z,85.81
2018-08-28T05:32:51.032Z,86.69
2018-08-28T05:35:21.584Z,85.66
2018-08-28T05:37:52.157Z,86.16
2018-08-28T05:40:22.562Z,85.66
2018-08-28T05:42:52.884Z,86.27
2018-08-28T05:45:27.673Z,86.45
2018-08-28T05:47:58.643Z,85.09
2018-08-28T05:50:29.947Z,85.63
2018-08-28T05:53:04.282Z,85.68
2018-08-28T05:55:36.271Z,85.45
2018-08-28T05:58:08.491Z,85.74
2018-08-28T06:00:39.729Z,85.58
2018-08-28T06:03:12.155Z,86.39
2018-08-28T06:05:46.088Z,86.01
2018-08-28T06:08:19.129Z,85.77
2018-08-28T06:10:49.633Z,86.50
2018-08-28T06:13:21.293Z,86.16
2018-08-28T06:15:52.047Z,86.47
2018-08-28T06:18:23.396Z,86.66
2018-08-28T06:20:53.698Z,87.72
2018-08-28T06:23:24.572Z,87.32
2018-08-28T06:25:55.066Z,86.91
2018-08-28T06:28:25.585Z,86.97
2018-08-28T06:30:56.676Z,86.28
2018-08-28T06:33:39.917Z,85.89
2018-08-28T06:44:59.220Z,84.63
2018-08-28T06:59:52.625Z,82.92
2018-08-28T07:02:34.226Z,83.94
2018-08-28T07:05:10.838Z,83.07
2018-08-28T07:17:40.261Z,80.10
2018-08-28T07:20:17.545Z,79.40
2018-08-28T07:22:55.441Z,77.93
2018-08-28T07:25:32.970Z,77.84
2018-08-28T07:33:57.258Z,78.46
2018-08-28T07:36:29.694Z,77.52
2018-08-28T07:39:02.530Z,75.95
2018-08-28T07:41:46.763Z,75.51
2018-08-28T07:44:25.298Z,74.79
2018-08-28T07:49:41.413Z,74.21
2018-08-28T07:52:15.017Z,73.26
2018-08-28T07:54:47.047Z,72.70
2018-08-28T07:57:20.560Z,72.12
2018-08-28T07:59:53.747Z,71.80
2018-08-28T08:02:25.901Z,71.32
2018-08-28T08:04:57.996Z,70.17
2018-08-28T08:07:33.458Z,70.62
2018-08-28T08:10:07.037Z,69.63
2018-08-28T08:12:42.677Z,68.17
2018-08-28T08:49:47.592Z,69.08
2018-08-28T08:52:19.187Z,68.98
2018-08-28T08:54:50.133Z,70.62
2018-08-28T08:57:20.743Z,72.80
2018-08-28T08:59:51.161Z,72.86
2018-08-28T09:02:21.372Z,74.15
2018-08-28T09:04:52.571Z,75.50
2018-08-28T09:07:23.751Z,79.25
2018-08-28T09:09:55.661Z,78.72
2018-08-28T09:12:26.573Z,78.51
2018-08-28T09:14:59.377Z,79.08
2018-08-28T09:17:30.891Z,81.01
2018-08-28T09:20:03.706Z,84.07
2018-08-28T09:22:34.600Z,85.16
2018-08-28T09:25:06.610Z,84.57
2018-08-28T09:27:38.672Z,84.59
2018-08-28T09:30:11.089Z,86.07
2018-08-28T09:32:42.891Z,85.36
2018-08-28T09:35:14.829Z,84.63
2018-08-28T09:37:46.047Z,84.30
2018-08-28T09:42:56.778Z,83.43
2018-08-28T09:45:28.189Z,82.52
2018-08-28T09:48:05.931Z,83.94
2018-08-28T09:50:38.956Z,82.81
2018-08-28T09:53:11.492Z,83.62
2018-08-28T09:55:46.841Z,82.60
2018-08-28T09:58:19.619Z,82.51
2018-08-28T10:01:01.754Z,81.13
2018-08-28T10:03:34.467Z,79.88
2018-08-28T10:06:09.557Z,81.38
2018-08-28T10:08:41.204Z,80.00
2018-08-28T10:11:12.104Z,80.26
2018-08-28T10:13:43.690Z,81.11
2018-08-28T10:16:16.299Z,79.75
2018-08-28T10:18:53.011Z,79.59
2018-08-28T10:24:35.543Z,78.41
2018-08-28T10:27:08.668Z,78.51
2018-08-28T10:29:38.840Z,76.38
2018-08-28T10:32:09.176Z,76.97
2018-08-28T10:34:39.647Z,77.86
2018-08-28T10:37:09.943Z,72.48
2018-08-28T10:39:41.497Z,71.37
2018-08-28T10:42:11.594Z,72.42
2018-08-28T10:44:42.286Z,73.35
2018-08-28T10:47:12.771Z,71.36
2018-08-28T10:49:43.193Z,71.01
2018-08-28T10:52:13.514Z,71.60
2018-08-28T10:54:45.085Z,69.62
2018-08-28T10:57:15.691Z,69.10
2018-08-28T10:59:46.493Z,70.50
2018-08-28T11:02:16.669Z,71.40
2018-08-28T11:04:49.145Z,70.35
2018-08-28T11:07:19.552Z,69.44
2018-08-28T11:09:51.333Z,69.92
2018-08-28T11:12:21.553Z,69.98
2018-08-28T11:14:53.053Z,68.73
2018-08-28T11:17:23.204Z,68.62
2018-08-28T11:19:54.373Z,68.22
2018-08-28T11:22:25.028Z,67.32
2018-08-28T11:24:55.327Z,66.04
2018-08-28T11:27:27.547Z,65.88
2018-08-28T11:29:57.793Z,66.33
2018-08-28T11:32:29.414Z,63.60
2018-08-28T11:34:59.729Z,64.39
2018-08-28T11:37:29.949Z,65.06
2018-08-28T11:40:00.061Z,65.24
2018-08-28T11:42:30.752Z,65.47
2018-08-28T11:45:00.827Z,64.25
2018-08-28T11:47:30.991Z,63.57
2018-08-28T11:50:02.394Z,62.34
2018-08-28T11:52:32.694Z,65.48
2018-08-28T11:55:03.464Z,62.85
2018-08-28T11:57:33.671Z,64.26
2018-08-28T12:00:04.152Z,63.21
2018-08-28T12:02:34.866Z,61.39
2018-08-28T12:05:05.405Z,61.25
2018-08-28T12:07:35.516Z,59.59
2018-08-28T12:10:07.341Z,60.06
2018-08-28T12:12:39.340Z,56.21
2018-08-28T12:15:10.129Z,55.68
2018-08-28T12:17:40.519Z,56.87
2018-08-28T12:20:11.701Z,57.22
2018-08-28T12:22:41.921Z,56.21
2018-08-28T12:25:12.881Z,58.97
2018-08-28T12:27:43.404Z,62.71
2018-08-28T12:30:13.726Z,65.34
2018-08-28T12:32:43.856Z,63.04
2018-08-28T12:35:13.951Z,64.54
2018-08-28T12:37:44.512Z,64.44
2018-08-28T12:40:14.798Z,64.37
2018-08-28T12:42:45.379Z,64.21
2018-08-28T12:45:19.419Z,63.95
2018-08-28T12:47:49.659Z,63.33
2018-08-28T12:50:20.086Z,63.69
2018-08-28T12:52:50.461Z,63.39
2018-08-28T12:55:22.380Z,62.36
2018-08-28T12:57:53.134Z,62.49
2018-08-28T13:00:24.048Z,63.87
2018-08-28T13:02:54.310Z,63.39
2018-08-28T13:05:24.195Z,65.27
2018-08-28T13:07:55.680Z,65.44
2018-08-28T13:10:25.278Z,64.76
2018-08-28T13:12:54.918Z,66.02
2018-08-28T13:15:25.243Z,65.29
2018-08-28T13:17:54.977Z,66.08
2018-08-28T13:20:25.099Z,67.07
2018-08-28T13:22:55.522Z,66.50
2018-08-28T13:25:36.432Z,65.85
2018-08-28T13:28:10.849Z,65.39
2018-08-28T13:30:43.773Z,65.14
2018-08-28T13:33:14.187Z,65.04
2018-08-28T13:38:25.752Z,66.05
2018-08-28T13:40:57.027Z,65.87
2018-08-28T13:43:27.021Z,65.52
2018-08-28T13:45:58.947Z,65.34
2018-08-28T13:48:29.893Z,64.65
2018-08-28T13:51:00.213Z,64.77
2018-08-28T13:53:30.541Z,65.04
2018-08-28T13:56:01.388Z,65.13
2018-08-28T13:58:32.640Z,64.39
2018-08-28T14:01:03.140Z,63.74
2018-08-28T14:03:33.766Z,62.86
2018-08-28T14:06:04.401Z,62.53
2018-08-28T14:08:35.026Z,61.66
2018-08-28T14:11:05.304Z,60.36
2018-08-28T14:13:35.763Z,59.18
2018-08-28T14:16:06.255Z,60.60
2018-08-28T14:18:36.525Z,58.63
2018-08-28T14:21:09.802Z,58.86
2018-08-28T14:23:49.791Z,58.61
2018-08-28T14:26:30.559Z,58.38
2018-08-28T14:31:46.324Z,58.69
2018-08-28T14:34:22.726Z,58.81
2018-08-28T14:36:55.654Z,58.49
2018-08-28T14:39:28.172Z,58.90
2018-08-28T14:42:04.137Z,59.52
2018-08-28T14:44:42.802Z,62.31
2018-08-28T14:47:20.582Z,61.69
2018-08-28T14:49:55.825Z,61.05
2018-08-28T14:52:31.637Z,61.86
2018-08-28T14:55:02.123Z,60.26
2018-08-28T14:57:37.357Z,61.02
2018-08-28T15:00:10.924Z,62.01
2018-08-28T15:02:42.666Z,59.65
2018-08-28T15:05:13.912Z,59.33
2018-08-28T15:07:45.461Z,59.83
2018-08-28T15:10:17.015Z,59.14
2018-08-28T15:12:48.100Z,60.21
2018-08-28T15:15:19.160Z,60.09
2018-08-28T15:17:49.624Z,60.37
2018-08-28T15:20:23.053Z,60.51
2018-08-28T15:22:54.944Z,59.73
2018-08-28T15:25:28.624Z,60.40
2018-08-28T15:27:58.842Z,60.37
2018-08-28T15:30:45.794Z,61.33
2018-08-28T15:38:47.836Z,60.36
2018-08-28T15:44:03.227Z,60.55
2018-08-28T15:52:40.364Z,61.77
2018-08-28T15:58:10.806Z,60.04
2018-08-28T16:00:45.366Z,60.14
2018-08-28T16:03:26.009Z,60.44
2018-08-28T16:06:07.890Z,60.29
2018-08-28T16:08:41.146Z,60.67
2018-08-28T16:14:23.006Z,60.59
2018-08-28T16:17:12.198Z,60.97
2018-08-28T16:19:51.727Z,60.97
2018-08-28T16:25:26.988Z,61.92
2018-08-28T16:28:03.030Z,62.61
2018-08-28T16:30:33.656Z,61.85
2018-08-28T16:33:03.662Z,61.70
2018-08-28T16:35:35.320Z,62.35
2018-08-28T16:38:08.020Z,62.91
2018-08-28T16:40:38.799Z,63.43
2018-08-28T16:43:09.460Z,63.84
2018-08-28T16:45:40.178Z,63.60
2018-08-28T16:48:11.049Z,64.45
2018-08-28T16:50:42.371Z,64.38
2018-08-28T16:53:12.919Z,64.94
2018-08-28T16:55:43.974Z,64.20
2018-08-28T16:58:14.396Z,65.45
2018-08-28T17:00:45.199Z,65.50
2018-08-28T17:03:15.343Z,65.42
2018-08-28T17:05:45.516Z,65.69
2018-08-28T17:08:15.884Z,65.84
2018-08-28T17:10:46.055Z,65.36
2018-08-28T17:13:17.088Z,65.62
2018-08-28T17:15:47.673Z,66.02
2018-08-28T17:18:18.360Z,66.00
2018-08-28T17:20:48.841Z,67.21
2018-08-28T17:23:19.777Z,66.79
2018-08-28T17:25:50.000Z,67.05
2018-08-28T17:28:20.843Z,67.29
2018-08-28T17:30:52.169Z,66.67
2018-08-28T17:33:22.375Z,66.66
2018-08-28T17:35:52.737Z,67.12
2018-08-28T17:38:22.791Z,68.18
2018-08-28T17:40:53.488Z,67.80
2018-08-28T17:43:23.645Z,67.26
2018-08-28T17:45:54.703Z,67.93
2018-08-28T17:48:25.205Z,68.57
2018-08-28T17:50:56.370Z,67.76
2018-08-28T17:53:27.385Z,67.55
2018-08-28T17:55:58.088Z,67.58
2018-08-28T17:58:29.883Z,67.44
2018-08-28T18:01:00.515Z,67.50
2018-08-28T18:03:31.044Z,68.12
2018-08-28T18:06:01.750Z,68.36
2018-08-28T18:08:32.713Z,69.26
2018-08-28T18:11:03.954Z,68.51
2018-08-28T18:13:34.092Z,69.02
2018-08-28T18:16:04.911Z,69.40
2018-08-28T18:18:35.214Z,68.88
2018-08-28T18:21:05.484Z,68.66
2018-08-28T18:23:36.423Z,69.24
2018-08-28T18:26:07.215Z,69.60
2018-08-28T18:28:37.857Z,69.50
2018-08-28T18:31:08.091Z,69.50
2018-08-28T18:33:38.754Z,69.89
2018-08-28T18:36:09.446Z,70.16
2018-08-28T18:38:39.981Z,69.25
2018-08-28T18:46:44.851Z,69.06
2018-08-28T18:49:17.923Z,69.30
2018-08-28T18:51:49.419Z,69.71
2018-08-28T18:54:24.455Z,70.09
2018-08-28T18:57:01.213Z,69.64
2018-08-28T18:59:37.680Z,70.77
2018-08-28T19:08:04.438Z,70.68
2018-08-28T19:10:35.956Z,70.16
2018-08-28T19:13:14.015Z,70.55
2018-08-28T19:15:49.366Z,70.44
2018-08-28T19:18:21.333Z,70.36
2018-08-28T19:20:51.988Z,71.65
2018-08-28T19:23:22.892Z,70.59
2018-08-28T19:25:54.559Z,70.87
2018-08-28T19:28:26.339Z,71.09
2018-08-28T19:30:56.972Z,71.31
2018-08-28T19:33:27.476Z,71.01
2018-08-28T19:35:57.584Z,70.85
2018-08-28T19:38:28.916Z,71.08
2018-08-28T19:40:59.456Z,71.08
2018-08-28T19:43:29.925Z,71.13
2018-08-28T19:46:06.553Z,70.36
2018-08-28T19:48:37.070Z,69.79
2018-08-28T19:51:08.836Z,70.84
2018-08-28T19:53:39.309Z,70.28
2018-08-28T19:56:09.799Z,70.99
2018-08-28T19:58:40.221Z,70.37
2018-08-28T20:01:11.023Z,71.06
2018-08-28T20:03:41.404Z,70.40
2018-08-28T20:06:14.128Z,71.29
2018-08-28T20:08:45.573Z,70.94
2018-08-28T20:11:17.733Z,70.25
2018-08-28T20:13:55.280Z,71.04
2018-08-28T20:16:28.301Z,70.47
2018-08-28T20:19:00.041Z,71.58
2018-08-28T20:24:47.279Z,71.51
2018-08-28T20:27:30.296Z,70.80
2018-08-28T20:30:09.257Z,71.61
2018-08-28T20:32:44.834Z,71.19
2018-08-28T20:38:04.405Z,71.09
2018-08-28T20:43:27.305Z,70.73
2018-08-28T20:46:05.309Z,70.25
2018-08-28T20:48:37.199Z,70.78
2018-08-28T20:51:15.559Z,69.84
2018-08-28T20:53:48.079Z,70.05
2018-08-28T20:56:18.850Z,70.18
2018-08-28T20:58:50.578Z,70.97
2018-08-28T21:01:21.501Z,70.57
2018-08-28T21:03:52.796Z,70.48
2018-08-28T21:06:23.323Z,70.94
2018-08-28T21:08:54.263Z,70.33
2018-08-28T21:11:27.080Z,69.75
2018-08-28T21:13:58.698Z,71.14
2018-08-28T21:16:33.588Z,71.40
2018-08-28T21:19:04.928Z,71.72
2018-08-28T21:21:37.200Z,72.21
2018-08-28T21:24:09.261Z,72.44
2018-08-28T21:26:40.761Z,72.49
2018-08-28T21:29:11.903Z,72.74
2018-08-28T21:31:43.880Z,72.73
2018-08-28T21:34:15.835Z,73.37
2018-08-28T21:39:51.657Z,73.19
2018-08-28T21:42:40.973Z,74.43
2018-08-28T21:45:35.126Z,74.83
2018-08-28T21:48:20.091Z,73.93
2018-08-28T21:50:55.367Z,75.48
2018-08-28T21:56:40.821Z,75.44
2018-08-28T21:59:32.391Z,74.72
2018-08-28T22:05:38.803Z,75.43
2018-08-28T22:11:21.117Z,75.85
2018-08-28T22:25:44.417Z,76.92
2018-08-28T22:28:29.837Z,78.63
2018-08-28T22:33:57.788Z,78.93
2018-08-28T22:36:36.164Z,78.41
2018-08-28T22:39:15.639Z,79.26
2018-08-28T22:42:16.691Z,79.97
2018-08-28T22:45:05.947Z,80.54
2018-08-28T23:00:53.367Z,80.24
2018-08-28T23:03:47.215Z,80.79
2018-08-28T23:15:01.176Z,81.62
